Terminal Aerodrome Forecast
Issued by NWS

Home | Current Version | Previous Version | Graphics & Text | Print | Product List | Glossary On
Versions: 1 2 3 4 5 6 7 8 9 10 11 12 13 14 15 16 17 18 19 20 21 22 23 24 25 26 27
000
FTUS43 KMPX 211700 RRA
TAFRNH
TAF
KRNH 211743Z 2118/2218 18013KT P6SM SCT150
     FM220200 18011KT P6SM SCT010 OVC013
     FM220800 20007KT 5SM BR OVC005=

USA.gov is the U.S. government's official web portal to all federal, state and local government web resources and services.